Time;durP1;ratioP1;P1;durP2;ratioP2;P2;SDS_P1;SDS_P2;PMS_P1;PMS_P2;Temp;Humidity;BMP_temperature;BMP_pressure;BME280_temperature;BME280_humidity;BME280_pressure;Samples;Min_cycle;Max_cycle;Signal;HPM_P1;HPM_P2
2023/09/19 00:02:18;;;;;;;5.05;1.25;;;16.70;99.90;;;;;;5032997;28;20598;-50
2023/09/19 00:04:44;;;;;;;3.90;1.08;;;16.70;99.90;;;;;;5032768;28;20037;-50
2023/09/19 00:07:10;;;;;;;6.65;1.60;;;16.70;99.90;;;;;;5032752;28;20420;-50
2023/09/19 00:09:37;;;;;;;6.55;1.05;;;16.70;99.90;;;;;;5032240;28;20071;-52
2023/09/19 00:12:09;;;;;;;5.20;1.13;;;16.60;99.90;;;;;;5032481;28;20048;-52
2023/09/19 00:14:35;;;;;;;8.60;1.25;;;16.60;99.90;;;;;;5031751;28;20025;-49
2023/09/19 00:17:08;;;;;;;6.80;1.33;;;16.60;99.90;;;;;;5032715;28;20034;-50
2023/09/19 00:19:35;;;;;;;8.15;1.75;;;16.60;99.90;;;;;;5032024;28;20659;-50
2023/09/19 00:22:01;;;;;;;8.77;2.10;;;16.50;99.90;;;;;;5032247;28;20025;-49
2023/09/19 00:24:27;;;;;;;7.47;2.13;;;16.50;99.90;;;;;;5032699;28;20045;-51
2023/09/19 00:26:55;;;;;;;7.13;2.20;;;16.60;99.90;;;;;;5032796;28;20045;-50
2023/09/19 00:29:23;;;;;;;9.30;2.47;;;16.50;99.90;;;;;;5032010;28;20428;-52
2023/09/19 00:31:50;;;;;;;8.77;2.15;;;16.50;99.90;;;;;;5032750;28;20033;-51
2023/09/19 00:34:16;;;;;;;10.18;2.10;;;16.50;99.90;;;;;;5033054;28;20041;-53
2023/09/19 00:36:43;;;;;;;7.80;1.95;;;16.50;99.90;;;;;;5015962;28;20416;-51
2023/09/19 00:39:10;;;;;;;8.23;2.30;;;16.50;99.90;;;;;;5015132;28;20037;-53
2023/09/19 00:41:36;;;;;;;5.13;1.75;;;16.50;99.90;;;;;;5016019;28;20037;-53
2023/09/19 00:44:03;;;;;;;5.65;1.70;;;16.50;99.90;;;;;;5016047;28;20025;-54
2023/09/19 00:46:32;;;;;;;8.32;1.60;;;16.40;99.90;;;;;;5014259;28;20099;-55
2023/09/19 00:48:59;;;;;;;4.47;1.90;;;16.40;99.90;;;;;;5013933;28;20482;-53
2023/09/19 00:51:27;;;;;;;7.65;1.77;;;16.40;99.90;;;;;;5014722;28;20041;-54
2023/09/19 00:53:53;;;;;;;9.85;2.25;;;16.30;99.90;;;;;;5032230;28;20037;-51
2023/09/19 00:56:20;;;;;;;4.80;1.55;;;16.30;99.90;;;;;;5014271;28;20048;-52
2023/09/19 00:58:47;;;;;;;9.00;2.30;;;16.30;99.90;;;;;;5013828;28;20528;-52
2023/09/19 01:01:14;;;;;;;7.57;1.83;;;16.30;99.90;;;;;;5014418;28;20466;-54
2023/09/19 01:03:41;;;;;;;9.93;1.63;;;16.30;99.90;;;;;;5014313;28;20037;-53
2023/09/19 01:06:10;;;;;;;6.75;1.77;;;16.30;99.90;;;;;;5032100;28;20045;-50
2023/09/19 01:08:38;;;;;;;5.40;1.38;;;16.20;99.90;;;;;;5014419;28;20498;-53
2023/09/19 01:11:26;;;;;;;5.07;1.70;;;16.20;99.90;;;;;;5013963;28;20083;-51
2023/09/19 01:14:27;;;;;;;7.30;2.05;;;16.20;99.90;;;;;;5013965;28;20082;-54
2023/09/19 01:17:22;;;;;;;7.70;1.58;;;16.10;99.90;;;;;;5014171;28;20117;-53
2023/09/19 01:20:12;;;;;;;8.30;1.52;;;16.10;99.90;;;;;;5031511;28;20105;-52
2023/09/19 01:23:02;;;;;;;6.63;1.38;;;16.10;99.90;;;;;;5014078;28;20032;-54
2023/09/19 01:25:27;;;;;;;;;;;16.00;99.90;;;;;;5033365;28;20038;-52
2023/09/19 01:28:28;;;;;;;5.45;1.30;;;16.00;99.90;;;;;;5018023;28;19920;-52
2023/09/19 01:30:58;;;;;;;6.13;1.67;;;16.00;99.90;;;;;;4993312;28;20095;-49
2023/09/19 01:33:25;;;;;;;8.10;1.30;;;16.00;99.90;;;;;;5035835;28;20108;-50
2023/09/19 01:35:52;;;;;;;5.95;1.48;;;16.00;99.90;;;;;;5018081;28;20025;-54
2023/09/19 01:38:19;;;;;;;6.25;1.30;;;16.00;99.90;;;;;;5035774;28;20025;-52
2023/09/19 01:41:12;;;;;;;4.88;1.20;;;15.90;99.90;;;;;;5017229;28;20029;-51
2023/09/19 01:43:47;;;;;;;3.15;1.30;;;15.90;99.90;;;;;;5017898;28;20035;-52
2023/09/19 01:46:29;;;;;;;8.63;1.73;;;15.90;99.90;;;;;;5017772;28;20649;-54
2023/09/19 01:49:16;;;;;;;6.68;1.45;;;15.90;99.90;;;;;;5017406;28;20040;-51
2023/09/19 01:52:06;;;;;;;10.27;1.70;;;15.90;99.90;;;;;;5017532;28;20040;-53
2023/09/19 01:54:45;;;;;;;8.23;1.50;;;15.90;99.90;;;;;;5035429;28;20030;-53
2023/09/19 01:57:17;;;;;;;4.00;1.60;;;15.80;99.90;;;;;;5035687;28;20082;-54
2023/09/19 01:59:54;;;;;;;5.57;1.00;;;15.80;99.90;;;;;;5017351;28;20420;-53
2023/09/19 02:02:22;;;;;;;10.10;1.33;;;15.80;99.90;;;;;;5017335;28;20116;-54
2023/09/19 02:04:50;;;;;;;5.07;1.17;;;15.80;99.90;;;;;;5035193;28;20083;-51
2023/09/19 02:07:16;;;;;;;4.93;1.15;;;15.80;99.90;;;;;;5017216;28;20440;-51
2023/09/19 02:09:42;;;;;;;4.18;1.02;;;15.80;99.90;;;;;;5016747;28;20501;-51
2023/09/19 02:12:09;;;;;;;7.25;1.10;;;15.70;99.90;;;;;;5035060;28;20030;-51
2023/09/19 02:14:36;;;;;;;6.97;1.40;;;15.70;99.90;;;;;;5017204;28;20175;-50
2023/09/19 02:17:07;;;;;;;6.57;1.00;;;15.70;99.90;;;;;;5034721;28;20104;-54
2023/09/19 02:19:33;;;;;;;5.82;1.17;;;15.70;99.90;;;;;;5033975;28;20033;-50
2023/09/19 02:22:00;;;;;;;7.50;1.58;;;15.70;99.90;;;;;;5016582;28;20033;-50
2023/09/19 02:24:26;;;;;;;3.38;1.27;;;15.70;99.90;;;;;;5033961;28;20108;-53
2023/09/19 02:26:52;;;;;;;4.10;1.00;;;15.60;99.90;;;;;;5033919;28;20486;-50
2023/09/19 02:29:18;;;;;;;4.70;1.20;;;15.60;99.90;;;;;;5015997;28;20118;-49
2023/09/19 02:31:46;;;;;;;5.75;1.27;;;15.60;99.90;;;;;;5015543;28;20033;-50
2023/09/19 02:34:11;;;;;;;6.28;1.40;;;15.60;99.90;;;;;;5015527;28;20474;-50
2023/09/19 02:36:37;;;;;;;5.70;1.48;;;15.60;99.90;;;;;;5015725;28;20088;-50
2023/09/19 02:39:05;;;;;;;8.38;1.45;;;15.60;99.90;;;;;;5015226;28;20087;-54
2023/09/19 02:41:32;;;;;;;6.05;1.45;;;15.60;99.90;;;;;;5016227;28;20037;-49
2023/09/19 02:43:59;;;;;;;5.47;1.30;;;15.60;99.90;;;;;;5016219;28;20044;-49
2023/09/19 02:46:27;;;;;;;5.07;1.33;;;15.60;99.90;;;;;;5016303;28;20037;-50
2023/09/19 02:48:54;;;;;;;7.28;1.20;;;15.60;99.90;;;;;;5015862;28;20474;-49
2023/09/19 02:51:20;;;;;;;6.32;1.27;;;15.50;99.90;;;;;;5034417;28;20034;-50
2023/09/19 02:53:47;;;;;;;4.90;0.93;;;15.50;99.90;;;;;;5015718;28;20040;-50
2023/09/19 02:56:13;;;;;;;5.82;1.30;;;15.50;99.90;;;;;;5034106;28;20152;-49
2023/09/19 02:58:39;;;;;;;3.70;0.93;;;15.50;99.90;;;;;;5015645;28;20553;-50
2023/09/19 03:01:14;;;;;;;8.40;1.58;;;15.50;99.90;;;;;;5033588;28;20022;-50
2023/09/19 03:03:40;;;;;;;6.18;0.98;;;15.50;99.90;;;;;;5016118;28;20040;-51
2023/09/19 03:06:08;;;;;;;4.45;1.08;;;15.50;99.90;;;;;;5016124;28;20030;-50
2023/09/19 03:08:36;;;;;;;2.67;1.57;;;15.50;99.90;;;;;;5016042;28;20040;-49
2023/09/19 03:11:11;;;;;;;7.78;1.40;;;15.50;99.90;;;;;;5015755;28;20432;-49
2023/09/19 03:13:39;;;;;;;4.03;1.05;;;15.50;99.90;;;;;;4999989;28;20049;-53
2023/09/19 03:16:05;;;;;;;2.97;0.82;;;15.50;99.90;;;;;;5015932;28;20029;-50
2023/09/19 03:18:35;;;;;;;6.07;1.10;;;15.50;99.90;;;;;;4999774;28;20028;-54
2023/09/19 03:21:01;;;;;;;3.65;1.00;;;15.40;99.90;;;;;;5015982;28;20116;-53
2023/09/19 03:23:28;;;;;;;4.57;1.10;;;15.40;99.90;;;;;;5016269;28;20118;-50
2023/09/19 03:25:56;;;;;;;5.63;1.50;;;15.40;99.90;;;;;;5016469;28;20030;-48
2023/09/19 03:28:24;;;;;;;4.20;1.00;;;15.40;99.90;;;;;;5015886;28;20029;-51
2023/09/19 03:31:02;;;;;;;6.82;1.45;;;15.40;99.90;;;;;;5015644;28;20112;-49
2023/09/19 03:33:32;;;;;;;4.28;1.02;;;15.40;99.90;;;;;;5014963;28;20062;-51
2023/09/19 03:36:00;;;;;;;8.25;1.60;;;15.40;99.90;;;;;;5015091;28;20037;-54
2023/09/19 03:38:27;;;;;;;10.10;1.63;;;15.40;99.90;;;;;;5013316;28;20091;-49
2023/09/19 03:40:53;;;;;;;7.55;1.52;;;15.40;99.90;;;;;;5013116;28;20557;-51
2023/09/19 03:43:19;;;;;;;4.60;1.02;;;15.40;99.90;;;;;;5027355;28;20104;-51
2023/09/19 03:45:46;;;;;;;6.15;1.45;;;15.40;99.90;;;;;;5010483;28;20036;-53
2023/09/19 03:48:13;;;;;;;7.22;1.10;;;15.30;99.90;;;;;;5012187;28;20083;-52
2023/09/19 03:50:39;;;;;;;6.63;1.52;;;15.30;99.90;;;;;;5010986;28;20033;-50
2023/09/19 03:53:07;;;;;;;7.57;1.80;;;15.30;99.90;;;;;;5029675;28;20099;-54
2023/09/19 03:55:35;;;;;;;7.00;1.33;;;15.30;99.90;;;;;;5010764;28;20025;-48
2023/09/19 03:58:04;;;;;;;5.73;1.20;;;15.40;99.90;;;;;;5012066;28;20312;-52
2023/09/19 04:00:30;;;;;;;;;;;15.30;99.90;;;;;;5012318;28;20432;-49
2023/09/19 04:02:56;;;;;;;6.80;2.55;;;15.30;99.90;;;;;;4995840;28;19915;-49
2023/09/19 04:05:23;;;;;;;4.53;1.50;;;15.30;99.90;;;;;;5030524;28;20026;-54
2023/09/19 04:07:49;;;;;;;5.45;1.27;;;15.30;99.90;;;;;;5030406;28;20026;-50
2023/09/19 04:10:24;;;;;;;9.70;2.10;;;15.30;99.90;;;;;;5066355;28;21199;-51
2023/09/19 04:12:53;;;;;;;8.05;1.92;;;15.30;99.90;;;;;;5076851;28;20024;-48
2023/09/19 04:15:21;;;;;;;12.98;2.00;;;15.30;99.90;;;;;;5069205;28;20075;-49
2023/09/19 04:17:47;;;;;;;7.63;1.90;;;15.30;99.90;;;;;;5066886;28;20024;-50
2023/09/19 04:20:13;;;;;;;7.65;1.65;;;15.30;99.90;;;;;;5071082;28;20879;-53
2023/09/19 04:22:42;;;;;;;8.10;2.55;;;15.30;99.90;;;;;;5079425;28;20523;-54
2023/09/19 04:25:07;;;;;;;5.47;1.75;;;15.20;99.90;;;;;;5070482;28;20089;-51
2023/09/19 04:27:33;;;;;;;7.68;1.77;;;15.20;99.90;;;;;;5073463;28;20033;-51
2023/09/19 04:29:59;;;;;;;8.68;1.70;;;15.20;99.90;;;;;;5072764;28;20036;-54
2023/09/19 04:32:28;;;;;;;7.03;2.03;;;15.20;99.90;;;;;;5082771;28;20354;-49
2023/09/19 04:34:54;;;;;;;;;;;15.20;99.90;;;;;;5066863;28;20593;-52
2023/09/19 04:37:21;;;;;;;6.72;1.73;;;15.10;99.90;;;;;;5079573;28;19913;-51
2023/09/19 04:39:47;;;;;;;9.55;2.22;;;15.10;99.90;;;;;;5070681;28;20108;-49
2023/09/19 04:42:14;;;;;;;9.40;2.72;;;15.10;99.90;;;;;;5071701;28;20119;-49
2023/09/19 04:44:40;;;;;;;12.88;3.42;;;15.10;99.90;;;;;;5068337;28;20038;-53
2023/09/19 04:47:06;;;;;;;6.53;1.65;;;15.10;99.90;;;;;;5066476;28;20091;-51
2023/09/19 04:49:31;;;;;;;8.70;1.70;;;15.10;99.90;;;;;;5070301;28;20029;-50
2023/09/19 04:51:57;;;;;;;6.03;1.67;;;15.10;99.90;;;;;;5064590;28;20158;-54
2023/09/19 04:54:23;;;;;;;4.78;1.23;;;15.00;99.90;;;;;;5080740;28;20338;-52
2023/09/19 04:56:48;;;;;;;6.97;2.22;;;15.00;99.90;;;;;;5074090;28;20052;-54
2023/09/19 04:59:15;;;;;;;15.10;4.20;;;15.10;99.90;;;;;;5061853;28;20033;-51
2023/09/19 05:01:41;;;;;;;8.52;3.15;;;15.10;99.90;;;;;;5061243;28;20032;-54
2023/09/19 05:04:07;;;;;;;4.60;1.60;;;15.20;99.90;;;;;;5065223;28;20035;-49
2023/09/19 05:06:33;;;;;;;6.88;1.70;;;15.10;99.90;;;;;;5073905;28;20623;-49
2023/09/19 05:09:00;;;;;;;5.90;1.20;;;15.10;99.90;;;;;;5068330;28;20322;-50
2023/09/19 05:11:26;;;;;;;7.63;1.30;;;15.10;99.90;;;;;;5078112;28;20392;-48
2023/09/19 05:13:52;;;;;;;7.10;1.88;;;15.00;99.90;;;;;;5074003;28;20131;-52
2023/09/19 05:16:18;;;;;;;7.22;2.03;;;15.10;99.90;;;;;;5065248;28;20037;-49
2023/09/19 05:18:44;;;;;;;7.72;1.95;;;15.10;99.90;;;;;;5074668;28;20128;-49
2023/09/19 05:21:10;;;;;;;7.05;1.85;;;15.10;99.90;;;;;;5063230;28;20108;-49
2023/09/19 05:23:36;;;;;;;10.23;2.17;;;15.20;99.90;;;;;;5063674;28;20398;-49
2023/09/19 05:26:03;;;;;;;5.30;1.88;;;15.30;99.90;;;;;;5059549;28;20028;-49
2023/09/19 05:28:29;;;;;;;8.02;1.63;;;15.30;99.90;;;;;;5059981;28;20025;-53
2023/09/19 05:30:55;;;;;;;7.72;1.40;;;15.40;99.90;;;;;;5062860;28;20070;-49
2023/09/19 05:33:21;;;;;;;7.28;2.20;;;15.40;99.90;;;;;;5068473;28;20039;-52
2023/09/19 05:35:50;;;;;;;6.95;1.85;;;15.40;99.90;;;;;;5068439;28;20029;-51
2023/09/19 05:38:18;;;;;;;7.63;2.13;;;15.40;99.90;;;;;;5065295;28;20021;-49
2023/09/19 05:40:45;;;;;;;6.10;1.67;;;15.50;99.90;;;;;;5051115;28;20437;-48
2023/09/19 05:43:10;;;;;;;9.30;1.67;;;15.50;99.90;;;;;;5063402;28;20508;-49
2023/09/19 05:45:37;;;;;;;7.57;1.70;;;15.50;99.90;;;;;;5064632;28;20036;-48
2023/09/19 05:48:15;;;;;;;4.90;1.20;;;15.50;99.90;;;;;;5075100;28;20174;-48
2023/09/19 05:50:41;;;;;;;4.70;1.25;;;15.50;99.90;;;;;;5064042;28;20021;-46
2023/09/19 05:53:07;;;;;;;5.50;1.35;;;15.40;99.90;;;;;;5068062;28;20453;-46
2023/09/19 05:55:33;;;;;;;7.70;1.83;;;15.40;99.90;;;;;;5059609;28;20162;-48
2023/09/19 05:57:59;;;;;;;8.18;1.65;;;15.40;99.90;;;;;;5068222;28;20020;-47
2023/09/19 06:00:27;;;;;;;7.70;1.45;;;15.40;99.90;;;;;;5067104;28;20036;-47
2023/09/19 06:02:54;;;;;;;4.43;1.30;;;15.40;99.90;;;;;;5071909;28;20089;-48
2023/09/19 06:05:20;;;;;;;9.73;1.80;;;15.50;99.90;;;;;;5069749;28;20047;-47
2023/09/19 06:07:46;;;;;;;9.35;1.70;;;15.50;99.90;;;;;;5065568;28;20035;-50
2023/09/19 06:10:13;;;;;;;8.30;1.42;;;15.50;99.90;;;;;;5057435;28;20088;-52
2023/09/19 06:12:39;;;;;;;6.18;1.50;;;15.60;99.90;;;;;;5054962;28;20652;-54
2023/09/19 06:15:08;;;;;;;4.07;1.00;;;15.60;99.90;;;;;;5061158;28;20450;-53
2023/09/19 06:17:37;;;;;;;5.05;1.60;;;15.70;99.90;;;;;;5061279;28;20088;-50
2023/09/19 06:20:12;;;;;;;3.90;1.10;;;15.70;99.90;;;;;;5065483;28;20098;-50
2023/09/19 06:22:39;;;;;;;5.20;1.40;;;15.70;99.90;;;;;;5054060;28;20473;-52
2023/09/19 06:25:05;;;;;;;9.38;1.95;;;15.70;99.90;;;;;;5066581;28;20036;-51
2023/09/19 06:27:30;;;;;;;4.35;1.50;;;15.70;99.90;;;;;;5070947;28;20128;-52
2023/09/19 06:29:56;;;;;;;7.13;1.48;;;15.70;99.90;;;;;;5069112;28;20028;-52
2023/09/19 06:32:27;;;;;;;11.38;2.30;;;15.70;99.90;;;;;;5056030;28;20029;-49
2023/09/19 06:34:58;;;;;;;7.10;1.60;;;15.70;99.90;;;;;;5061484;28;20410;-49
2023/09/19 06:37:27;;;;;;;6.40;1.75;;;15.70;99.90;;;;;;5058972;28;20550;-49
2023/09/19 06:39:53;;;;;;;;;;;15.60;99.90;;;;;;5066191;28;20035;-49
2023/09/19 06:42:19;;;;;;;6.57;1.60;;;15.60;99.90;;;;;;5062778;28;19912;-49
2023/09/19 06:44:44;;;;;;;10.77;2.03;;;15.70;99.90;;;;;;5059727;28;20167;-51
2023/09/19 06:47:10;;;;;;;7.93;2.10;;;15.70;99.90;;;;;;5064709;28;20024;-51
2023/09/19 06:49:36;;;;;;;10.82;2.15;;;15.70;99.90;;;;;;5058342;28;20058;-51
2023/09/19 06:52:02;;;;;;;7.25;1.95;;;15.70;99.90;;;;;;5070106;28;20116;-53
2023/09/19 06:54:31;;;;;;;7.63;1.67;;;15.70;99.90;;;;;;5070270;28;20024;-52
2023/09/19 06:57:00;;;;;;;8.73;2.00;;;15.70;99.90;;;;;;5062253;28;20067;-54
2023/09/19 06:59:25;;;;;;;5.00;1.30;;;15.80;99.90;;;;;;5051704;28;20538;-50
2023/09/19 07:01:51;;;;;;;6.05;1.73;;;15.80;99.90;;;;;;5065947;28;20028;-50
2023/09/19 07:04:19;;;;;;;10.10;2.35;;;15.80;99.90;;;;;;5051601;28;20094;-53
2023/09/19 07:06:49;;;;;;;7.72;1.60;;;15.80;99.90;;;;;;5066039;28;20099;-54
2023/09/19 07:09:19;;;;;;;5.93;1.63;;;15.90;99.90;;;;;;5061431;28;20040;-51
2023/09/19 07:11:45;;;;;;;9.57;2.00;;;15.90;99.90;;;;;;5060334;28;20093;-53
2023/09/19 07:14:13;;;;;;;4.95;1.55;;;15.90;99.90;;;;;;5051565;28;20037;-52
2023/09/19 07:16:42;;;;;;;6.93;1.52;;;15.90;99.90;;;;;;5068001;28;20175;-53
2023/09/19 07:19:08;;;;;;;8.13;2.65;;;15.90;99.90;;;;;;5059653;28;20025;-52
2023/09/19 07:21:35;;;;;;;5.05;1.73;;;15.90;99.90;;;;;;5065035;28;20028;-53
2023/09/19 07:24:02;;;;;;;12.20;2.83;;;16.00;99.90;;;;;;5058984;28;20052;-54
2023/09/19 07:26:27;;;;;;;5.65;2.13;;;16.00;99.90;;;;;;5067578;28;20029;-51
2023/09/19 07:28:54;;;;;;;7.97;1.85;;;16.00;99.90;;;;;;5067409;28;20074;-53
2023/09/19 07:31:19;;;;;;;7.40;2.17;;;16.00;99.90;;;;;;5068105;28;20028;-52
2023/09/19 07:33:45;;;;;;;6.25;1.75;;;16.10;99.90;;;;;;5061704;28;20104;-49
2023/09/19 07:36:13;;;;;;;15.93;5.82;;;16.10;99.90;;;;;;5063282;28;20028;-52
2023/09/19 07:38:39;;;;;;;15.07;6.60;;;16.30;99.90;;;;;;5063694;28;20040;-50
2023/09/19 07:41:05;;;;;;;18.85;6.82;;;16.40;99.90;;;;;;5061133;28;20024;-55
2023/09/19 07:43:31;;;;;;;8.95;2.95;;;16.40;99.90;;;;;;5068491;28;20035;-51
2023/09/19 07:46:00;;;;;;;9.45;3.10;;;16.50;99.90;;;;;;5051782;28;20343;-52
2023/09/19 07:48:26;;;;;;;;;;;16.50;99.90;;;;;;5057294;28;20025;-53
2023/09/19 07:50:51;;;;;;;7.28;1.73;;;16.50;99.90;;;;;;5047800;28;19916;-52
2023/09/19 07:53:17;;;;;;;11.93;1.65;;;16.50;99.90;;;;;;5050408;28;20039;-54
2023/09/19 07:55:43;;;;;;;9.43;2.35;;;16.40;99.90;;;;;;5056859;28;20033;-54
2023/09/19 07:58:09;;;;;;;8.80;1.60;;;16.40;99.90;;;;;;5059981;28;20025;-53
2023/09/19 08:00:35;;;;;;;10.25;2.40;;;16.30;99.90;;;;;;5067717;28;20032;-51
2023/09/19 08:03:01;;;;;;;5.53;1.65;;;16.30;99.90;;;;;;5058473;28;20114;-53
2023/09/19 08:05:26;;;;;;;9.52;2.15;;;16.30;99.90;;;;;;5058773;28;20048;-52
2023/09/19 08:07:53;;;;;;;7.53;2.00;;;16.30;99.90;;;;;;5065482;28;20101;-53
2023/09/19 08:10:20;;;;;;;6.68;1.35;;;16.40;99.90;;;;;;5059115;28;20017;-52
2023/09/19 08:12:48;;;;;;;7.22;1.85;;;16.40;99.90;;;;;;5051604;28;20032;-51
2023/09/19 08:15:19;;;;;;;10.73;1.95;;;16.40;99.90;;;;;;5051706;28;20043;-54
2023/09/19 08:17:46;;;;;;;6.78;1.70;;;16.50;99.90;;;;;;5068098;28;20020;-55
2023/09/19 08:20:21;;;;;;;5.90;2.00;;;16.50;99.90;;;;;;5067314;28;20497;-50
2023/09/19 08:22:52;;;;;;;6.43;2.10;;;16.60;99.90;;;;;;5051369;28;20036;-50
2023/09/19 08:25:18;;;;;;;7.93;2.13;;;16.70;99.90;;;;;;5062336;28;20409;-54
2023/09/19 08:27:48;;;;;;;17.17;5.60;;;16.80;99.90;;;;;;5056090;28;20029;-53
2023/09/19 08:30:18;;;;;;;7.45;2.30;;;17.00;99.90;;;;;;5057824;28;20473;-53
2023/09/19 08:32:43;;;;;;;6.78;1.80;;;17.20;99.90;;;;;;5060274;28;20024;-54
2023/09/19 08:35:10;;;;;;;4.95;1.45;;;17.30;99.90;;;;;;5050457;28;20028;-52
2023/09/19 08:37:36;;;;;;;7.80;1.85;;;17.50;99.90;;;;;;5068527;28;20109;-54
2023/09/19 08:40:02;;;;;;;6.45;1.60;;;17.50;99.90;;;;;;5052694;28;20065;-51
2023/09/19 08:42:27;;;;;;;4.70;1.50;;;17.50;99.90;;;;;;5060887;28;20028;-53
2023/09/19 08:44:55;;;;;;;6.45;1.45;;;17.60;99.90;;;;;;5048229;28;20031;-55
2023/09/19 08:47:38;;;;;;;4.60;1.13;;;17.70;99.90;;;;;;5054614;28;20025;-52
2023/09/19 08:50:28;;;;;;;5.28;1.10;;;17.70;99.90;;;;;;5046984;28;20426;-53
2023/09/19 08:52:56;;;;;;;5.80;1.35;;;17.60;99.90;;;;;;5058786;28;20364;-54
2023/09/19 08:55:29;;;;;;;4.07;1.10;;;17.50;99.90;;;;;;5049881;28;20659;-54
2023/09/19 08:58:01;;;;;;;9.05;1.67;;;17.50;99.90;;;;;;5048995;28;20021;-53
2023/09/19 09:00:28;;;;;;;3.30;1.15;;;17.60;99.90;;;;;;5064255;28;20104;-52
2023/09/19 09:02:56;;;;;;;13.77;2.40;;;17.60;99.90;;;;;;5071764;28;20032;-52
2023/09/19 09:05:23;;;;;;;9.90;2.42;;;17.70;99.90;;;;;;5071689;28;20407;-54
2023/09/19 09:07:54;;;;;;;8.00;1.98;;;17.70;99.90;;;;;;5071828;28;20473;-54
2023/09/19 09:10:22;;;;;;;9.38;1.75;;;17.80;99.90;;;;;;5070775;28;20028;-50
2023/09/19 09:12:55;;;;;;;6.63;1.90;;;17.80;99.90;;;;;;5061781;28;20588;-51
2023/09/19 09:15:23;;;;;;;7.32;1.85;;;17.80;99.90;;;;;;5067311;28;20025;-51
2023/09/19 09:17:50;;;;;;;7.28;1.60;;;17.70;99.90;;;;;;5056777;28;20024;-53
2023/09/19 09:20:19;;;;;;;7.35;1.92;;;17.80;99.90;;;;;;5068128;28;20044;-52
2023/09/19 09:23:03;;;;;;;8.77;2.28;;;17.80;99.90;;;;;;5051143;28;20037;-54
2023/09/19 09:25:54;;;;;;;4.55;1.60;;;17.80;99.90;;;;;;5059976;28;20104;-55
2023/09/19 09:28:26;;;;;;;7.70;1.90;;;17.90;99.90;;;;;;5058673;28;20115;-53
2023/09/19 09:30:52;;;;;;;8.20;1.80;;;18.00;99.90;;;;;;5058682;28;20028;-49
2023/09/19 09:33:18;;;;;;;6.00;1.30;;;18.00;99.90;;;;;;5059204;28;20365;-53
2023/09/19 09:35:56;;;;;;;4.22;1.45;;;18.10;99.90;;;;;;5056493;28;20399;-54
2023/09/19 09:38:27;;;;;;;3.53;1.25;;;18.10;99.90;;;;;;5062654;28;20141;-54
2023/09/19 09:43:38;;;;;;;7.20;1.77;;;18.20;99.90;;;;;;5057022;28;20044;-53
2023/09/19 09:46:54;;;;;;;7.47;1.80;;;18.30;99.90;;;;;;5060086;28;20025;-54
2023/09/19 09:51:57;;;;;;;6.35;2.08;;;18.30;99.90;;;;;;5070799;28;20028;-53
2023/09/19 09:54:24;;;;;;;7.55;1.70;;;18.40;99.90;;;;;;5055064;28;20036;-53
2023/09/19 09:59:57;;;;;;;8.15;2.15;;;18.40;99.90;;;;;;5060101;28;20443;-53
2023/09/19 10:02:36;;;;;;;9.45;1.92;;;18.40;99.90;;;;;;5059182;28;20408;-54
2023/09/19 10:07:52;;;;;;;9.40;1.85;;;18.80;99.90;;;;;;5062327;28;20311;-54
2023/09/19 10:10:45;;;;;;;4.72;1.48;;;19.00;99.90;;;;;;5058513;28;20040;-53
2023/09/19 10:13:18;;;;;;;6.97;2.03;;;19.10;99.90;;;;;;5050137;28;20086;-54
2023/09/19 10:15:50;;;;;;;7.10;1.73;;;19.30;99.90;;;;;;5050126;28;20056;-53
2023/09/19 10:18:20;;;;;;;5.28;1.42;;;19.70;99.90;;;;;;5061814;28;20028;-52
2023/09/19 10:20:47;;;;;;;3.80;1.35;;;20.00;99.90;;;;;;5072569;28;20078;-51
2023/09/19 10:23:13;;;;;;;7.13;1.50;;;20.40;99.90;;;;;;5078483;28;20067;-50
2023/09/19 10:25:46;;;;;;;9.02;2.40;;;20.50;99.90;;;;;;5067750;28;20028;-51
2023/09/19 10:28:14;;;;;;;5.43;1.30;;;20.70;99.90;;;;;;5069483;28;20036;-51
2023/09/19 10:30:47;;;;;;;4.25;1.38;;;20.80;99.90;;;;;;5069804;28;20089;-53
2023/09/19 10:33:15;;;;;;;8.60;1.48;;;21.10;99.90;;;;;;5078598;28;20050;-52
2023/09/19 10:35:48;;;;;;;5.13;1.23;;;21.30;99.90;;;;;;5059841;28;20036;-53
2023/09/19 10:38:18;;;;;;;5.55;1.40;;;20.80;99.90;;;;;;5076870;28;20052;-55
2023/09/19 10:40:48;;;;;;;6.35;1.50;;;20.40;99.90;;;;;;5068444;28;20037;-54
2023/09/19 10:43:19;;;;;;;4.25;1.30;;;20.30;99.90;;;;;;5066406;28;20033;-48
2023/09/19 10:45:51;;;;;;;4.65;1.00;;;20.50;99.90;;;;;;5059256;28;20025;-51
2023/09/19 10:48:19;;;;;;;5.40;1.20;;;20.80;99.90;;;;;;5059203;28;20866;-47
2023/09/19 10:50:59;;;;;;;9.50;2.53;;;20.90;99.90;;;;;;5066223;28;20028;-47
2023/09/19 10:53:26;;;;;;;3.85;0.93;;;21.00;99.90;;;;;;5067514;28;20060;-50
2023/09/19 10:55:57;;;;;;;5.82;1.20;;;21.10;99.90;;;;;;5059872;28;20017;-49
2023/09/19 10:58:28;;;;;;;5.00;1.48;;;20.80;99.90;;;;;;5059260;28;20477;-48
2023/09/19 11:01:07;;;;;;;4.13;1.27;;;20.40;99.90;;;;;;5066261;28;20028;-48
2023/09/19 11:03:33;;;;;;;4.57;1.20;;;20.20;99.90;;;;;;5070711;28;20085;-48
2023/09/19 11:06:13;;;;;;;6.80;1.65;;;20.20;99.90;;;;;;5054069;28;20029;-49
2023/09/19 11:08:57;;;;;;;11.85;3.10;;;20.10;99.90;;;;;;5052619;28;20059;-49
2023/09/19 11:11:43;;;;;;;6.00;1.58;;;20.10;99.90;;;;;;5062332;28;20020;-51
2023/09/19 11:14:37;;;;;;;9.98;3.28;;;20.00;99.90;;;;;;5061257;28;20090;-48
2023/09/19 11:17:17;;;;;;;13.38;4.95;;;20.00;99.90;;;;;;5064487;28;20094;-48
2023/09/19 11:22:48;;;;;;;5.93;1.98;;;19.80;99.90;;;;;;5059165;28;20044;-50
2023/09/19 11:25:29;;;;;;;7.07;1.50;;;20.10;99.90;;;;;;5063006;28;20037;-50
2023/09/19 11:28:08;;;;;;;5.93;1.70;;;20.20;99.90;;;;;;5063543;28;20121;-49
2023/09/19 11:30:35;;;;;;;;;;;20.20;99.90;;;;;;5063807;28;20040;-53
2023/09/19 11:33:28;;;;;;;6.55;2.03;;;20.10;99.90;;;;;;5060323;28;19932;-53
2023/09/19 11:36:18;;;;;;;3.63;1.45;;;20.10;99.90;;;;;;5053776;28;20032;-52
2023/09/19 11:38:44;;;;;;;4.15;1.63;;;20.20;99.90;;;;;;5044838;28;20164;-50
2023/09/19 11:41:22;;;;;;;6.20;1.30;;;20.10;99.90;;;;;;5057210;28;20122;-50
2023/09/19 11:43:51;;;;;;;7.60;2.00;;;20.10;99.90;;;;;;5055698;28;20021;-50
2023/09/19 11:46:21;;;;;;;4.80;1.58;;;20.20;99.90;;;;;;5052588;28;20037;-54
2023/09/19 11:48:51;;;;;;;4.03;1.48;;;20.20;99.90;;;;;;5055231;28;20067;-52
2023/09/19 11:51:21;;;;;;;5.32;1.38;;;20.20;99.90;;;;;;5056544;28;20029;-53
2023/09/19 11:53:48;;;;;;;7.18;1.67;;;20.10;99.90;;;;;;5065886;28;20016;-52
2023/09/19 11:56:17;;;;;;;4.85;1.52;;;20.10;99.90;;;;;;5060420;28;20093;-55
2023/09/19 11:58:45;;;;;;;;;;;20.20;99.90;;;;;;5057873;28;20032;-55
2023/09/19 12:01:14;;;;;;;7.90;1.88;;;20.30;99.90;;;;;;5065960;28;19923;-54
2023/09/19 12:03:49;;;;;;;7.97;1.65;;;20.40;99.90;;;;;;5053398;28;20020;-56
2023/09/19 12:06:16;;;;;;;4.45;1.90;;;20.50;99.90;;;;;;5048251;28;20068;-55
2023/09/19 12:08:43;;;;;;;5.05;1.20;;;20.50;99.90;;;;;;5055466;28;20040;-51
2023/09/19 12:11:16;;;;;;;6.45;1.10;;;20.60;99.90;;;;;;5064616;28;20134;-53
2023/09/19 12:13:44;;;;;;;3.05;1.30;;;20.60;99.90;;;;;;5061621;28;20470;-52
2023/09/19 12:16:17;;;;;;;4.80;1.20;;;20.70;99.90;;;;;;5056051;28;20021;-54
2023/09/19 12:18:47;;;;;;;5.68;1.30;;;20.70;99.90;;;;;;5052996;28;20035;-54
2023/09/19 12:21:32;;;;;;;5.53;1.27;;;20.70;99.90;;;;;;5050193;28;20092;-56
2023/09/19 12:23:58;;;;;;;3.65;1.38;;;20.80;99.90;;;;;;5064521;28;20047;-54
2023/09/19 12:26:25;;;;;;;3.17;1.10;;;20.80;99.90;;;;;;5048778;28;20474;-53
2023/09/19 12:28:54;;;;;;;5.25;1.17;;;20.80;99.70;;;;;;5058106;28;20562;-50
2023/09/19 12:31:20;;;;;;;3.88;1.25;;;20.80;99.70;;;;;;5061885;28;20025;-51
2023/09/19 12:33:45;;;;;;;2.35;0.93;;;20.90;99.90;;;;;;5057961;28;20032;-50
2023/09/19 12:36:28;;;;;;;3.80;1.08;;;20.90;99.40;;;;;;5062653;28;20031;-52
2023/09/19 12:38:55;;;;;;;6.57;1.17;;;20.90;99.90;;;;;;5057375;28;20056;-52
2023/09/19 12:41:22;;;;;;;2.65;0.93;;;20.80;99.90;;;;;;5056875;28;20028;-52
2023/09/19 12:43:48;;;;;;;4.32;1.20;;;20.80;99.90;;;;;;5066987;28;20029;-52
2023/09/19 12:46:15;;;;;;;2.90;1.10;;;20.80;99.90;;;;;;5061459;28;20384;-53
2023/09/19 12:48:43;;;;;;;4.07;1.20;;;20.90;99.90;;;;;;5058474;28;20473;-53
2023/09/19 12:51:15;;;;;;;7.07;1.08;;;21.10;99.60;;;;;;5070930;28;20070;-48
2023/09/19 12:53:48;;;;;;;5.28;1.02;;;21.10;99.60;;;;;;5068046;28;20516;-53
2023/09/19 12:56:18;;;;;;;3.95;0.90;;;21.00;99.90;;;;;;5066050;28;20029;-53
2023/09/19 12:58:49;;;;;;;4.32;1.30;;;21.10;99.90;;;;;;5059284;28;20464;-53
2023/09/19 13:01:16;;;;;;;3.58;1.00;;;21.10;99.80;;;;;;5065974;28;20461;-53
2023/09/19 13:03:42;;;;;;;6.97;1.10;;;21.20;99.70;;;;;;5072569;28;20021;-53
2023/09/19 13:06:09;;;;;;;5.07;1.05;;;21.20;99.50;;;;;;5055637;28;20036;-52
2023/09/19 13:08:41;;;;;;;4.03;0.80;;;21.20;99.50;;;;;;5073805;28;20033;-52
2023/09/19 13:11:17;;;;;;;3.40;0.98;;;21.20;99.50;;;;;;5069371;28;20033;-49
2023/09/19 13:14:08;;;;;;;5.47;1.77;;;20.90;99.60;;;;;;5054807;28;20107;-52
2023/09/19 13:16:34;;;;;;;3.33;0.98;;;20.80;99.90;;;;;;5074080;28;20025;-50